Time;durP1;ratioP1;P1;durP2;ratioP2;P2;SDS_P1;SDS_P2;PMS_P1;PMS_P2;Temp;Humidity;BMP_temperature;BMP_pressure;BME280_temperature;BME280_humidity;BME280_pressure;Samples;Min_cycle;Max_cycle;Signal;HPM_P1;HPM_P2
2023/04/30 00:00:12;;;;;;;22.67;16.00;;;8.10;94.10;;;;;;6155397;22;88386;-80
2023/04/30 00:02:38;;;;;;;24.80;16.73;;;8.10;93.90;;;;;;6155563;22;88249;-80
2023/04/30 00:05:04;;;;;;;25.50;17.40;;;8.00;93.90;;;;;;6156067;22;88491;-80
2023/04/30 00:07:31;;;;;;;27.67;18.08;;;7.90;94.00;;;;;;6155404;22;87551;-79
2023/04/30 00:09:56;;;;;;;25.75;16.23;;;7.90;94.10;;;;;;6128067;22;90039;-80
2023/04/30 00:12:22;;;;;;;25.35;16.42;;;7.90;94.00;;;;;;6127835;22;90452;-79
2023/04/30 00:14:48;;;;;;;20.52;15.77;;;7.80;93.80;;;;;;6128541;22;87600;-80
2023/04/30 00:17:14;;;;;;;23.08;15.77;;;7.70;93.90;;;;;;6154710;22;87606;-79
2023/04/30 00:19:41;;;;;;;21.27;15.52;;;7.60;93.90;;;;;;6156635;22;88567;-80
2023/04/30 00:22:07;;;;;;;22.95;15.60;;;7.60;94.10;;;;;;6128623;22;89978;-80
2023/04/30 00:24:32;;;;;;;23.80;16.00;;;7.60;94.10;;;;;;6155557;22;87286;-80
2023/04/30 00:26:58;;;;;;;24.73;14.38;;;7.50;94.10;;;;;;6154606;22;87379;-80
2023/04/30 00:29:24;;;;;;;21.60;14.15;;;7.50;94.10;;;;;;6154335;22;88723;-80
2023/04/30 00:31:49;;;;;;;20.35;13.60;;;7.40;94.10;;;;;;6155537;22;88313;-80
2023/04/30 00:34:15;;;;;;;23.63;14.57;;;7.40;94.10;;;;;;6154828;22;87200;-80
2023/04/30 00:36:41;;;;;;;20.73;14.95;;;7.40;94.20;;;;;;6128498;22;90601;-80
2023/04/30 00:39:06;;;;;;;23.15;16.27;;;7.30;94.30;;;;;;6154400;22;88535;-80
2023/04/30 00:41:34;;;;;;;25.88;14.70;;;7.30;94.50;;;;;;6154989;22;88884;-80
2023/04/30 00:44:01;;;;;;;26.17;16.33;;;7.20;94.40;;;;;;6155899;22;88115;-80
2023/04/30 00:46:27;;;;;;;26.88;16.83;;;7.20;94.60;;;;;;6155461;22;87311;-80
2023/04/30 00:48:53;;;;;;;24.08;15.50;;;7.20;94.50;;;;;;6154991;22;87543;-80
2023/04/30 00:51:19;;;;;;;25.17;15.68;;;7.10;94.60;;;;;;6155570;22;87605;-80
2023/04/30 00:53:45;;;;;;;25.08;16.42;;;7.10;94.50;;;;;;6153668;22;88292;-80
2023/04/30 00:56:15;;;;;;;24.90;15.27;;;7.10;94.70;;;;;;6127610;22;88058;-80
2023/04/30 00:58:41;;;;;;;25.08;15.70;;;7.00;94.60;;;;;;6155975;22;89265;-80
2023/04/30 01:01:07;;;;;;;23.23;15.13;;;6.90;94.70;;;;;;6154558;22;87901;-80
2023/04/30 01:03:34;;;;;;;24.30;15.05;;;6.90;94.80;;;;;;6154889;22;87509;-80
2023/04/30 01:06:02;;;;;;;26.42;15.30;;;6.80;94.60;;;;;;6154930;22;86958;-80
2023/04/30 01:08:31;;;;;;;23.42;14.85;;;6.80;94.70;;;;;;6154876;22;87281;-80
2023/04/30 01:11:20;;;;;;;24.60;14.82;;;6.80;94.80;;;;;;6156335;22;88320;-80
2023/04/30 01:14:01;;;;;;;25.27;15.80;;;6.70;94.90;;;;;;6156466;22;88164;-80
2023/04/30 01:16:38;;;;;;;23.88;15.40;;;6.70;94.90;;;;;;6128478;22;89102;-80
2023/04/30 01:19:28;;;;;;;23.10;14.40;;;6.70;94.90;;;;;;6128277;22;92267;-80
2023/04/30 01:22:00;;;;;;;24.45;16.45;;;6.70;94.80;;;;;;6154607;22;88561;-77
2023/04/30 01:24:37;;;;;;;24.23;15.73;;;6.60;95.00;;;;;;6154275;22;87518;-80
2023/04/30 01:27:14;;;;;;;31.50;17.52;;;6.60;95.00;;;;;;6128830;22;88953;-80
2023/04/30 01:29:42;;;;;;;26.25;16.50;;;6.60;95.30;;;;;;6155349;22;87752;-80
2023/04/30 01:32:09;;;;;;;24.38;15.05;;;6.60;95.40;;;;;;6156695;22;88389;-80
2023/04/30 01:34:35;;;;;;;20.00;12.93;;;6.60;95.20;;;;;;6154240;22;87296;-80
2023/04/30 01:37:35;;;;;;;21.40;12.73;;;6.50;95.40;;;;;;6155931;22;87858;-79
2023/04/30 01:40:23;;;;;;;22.55;13.50;;;6.50;95.30;;;;;;6155028;22;93815;-80
2023/04/30 01:42:54;;;;;;;21.25;13.25;;;6.50;95.10;;;;;;6127977;22;90383;-80
2023/04/30 01:45:51;;;;;;;23.08;13.73;;;6.40;95.10;;;;;;6127782;22;88376;-80
2023/04/30 01:48:17;;;;;;;22.65;14.57;;;6.40;95.20;;;;;;6155418;22;87464;-80
2023/04/30 01:50:57;;;;;;;21.20;13.30;;;6.40;95.30;;;;;;6155714;22;88474;-80
2023/04/30 01:53:36;;;;;;;21.73;12.95;;;6.40;95.30;;;;;;6155431;22;88012;-80
2023/04/30 01:56:05;;;;;;;23.48;14.50;;;6.40;95.20;;;;;;6129697;22;87316;-80
2023/04/30 01:58:31;;;;;;;21.02;13.00;;;6.30;95.40;;;;;;6155320;22;87524;-80
2023/04/30 02:00:57;;;;;;;23.60;13.95;;;6.30;95.70;;;;;;6154632;22;89183;-80
2023/04/30 02:03:23;;;;;;;22.67;13.73;;;6.30;95.60;;;;;;6155841;22;88356;-80
2023/04/30 02:05:50;;;;;;;20.45;13.35;;;6.30;95.70;;;;;;6154772;22;87429;-80
2023/04/30 02:08:16;;;;;;;20.17;12.43;;;6.20;95.70;;;;;;6152882;22;87726;-80
2023/04/30 02:10:41;;;;;;;21.17;12.77;;;6.20;95.40;;;;;;6152863;22;89451;-80
2023/04/30 02:13:07;;;;;;;19.08;12.68;;;6.20;95.40;;;;;;6126851;22;90872;-80
2023/04/30 02:15:32;;;;;;;19.77;10.90;;;6.10;95.30;;;;;;6153644;22;87448;-80
2023/04/30 02:17:58;;;;;;;20.17;12.02;;;6.10;95.10;;;;;;6155379;22;87241;-80
2023/04/30 02:20:24;;;;;;;20.95;11.27;;;6.00;95.10;;;;;;6128454;22;90238;-80
2023/04/30 02:22:50;;;;;;;17.00;10.85;;;6.00;95.00;;;;;;6128821;22;90928;-80
2023/04/30 02:25:16;;;;;;;18.73;10.95;;;6.00;95.00;;;;;;6153651;22;87637;-80
2023/04/30 02:27:41;;;;;;;19.33;11.55;;;5.90;95.00;;;;;;6128788;22;89597;-80
2023/04/30 02:30:07;;;;;;;20.73;11.95;;;5.90;95.00;;;;;;6128106;22;89941;-80
2023/04/30 02:32:33;;;;;;;19.25;11.40;;;5.90;95.10;;;;;;6154853;22;87333;-80
2023/04/30 02:34:59;;;;;;;17.13;11.90;;;5.80;95.00;;;;;;6127926;22;88511;-80
2023/04/30 02:37:25;;;;;;;20.60;11.75;;;5.80;95.10;;;;;;6128976;22;87725;-80
2023/04/30 02:39:52;;;;;;;19.20;11.75;;;5.70;95.10;;;;;;6156318;22;88319;-80
2023/04/30 02:42:18;;;;;;;21.67;11.88;;;5.70;95.00;;;;;;6156429;22;87901;-80
2023/04/30 02:44:43;;;;;;;19.77;12.38;;;5.60;94.90;;;;;;6129118;22;86976;-80
2023/04/30 02:47:09;;;;;;;19.58;11.40;;;5.60;95.00;;;;;;6155931;22;88203;-80
2023/04/30 02:49:35;;;;;;;21.88;12.63;;;5.50;95.10;;;;;;6129655;22;92117;-80
2023/04/30 02:52:01;;;;;;;20.13;13.15;;;5.50;95.30;;;;;;6130004;22;90255;-77
2023/04/30 02:54:26;;;;;;;21.52;11.50;;;5.50;95.40;;;;;;6156173;22;87624;-80
2023/04/30 02:56:52;;;;;;;18.20;11.18;;;5.50;95.40;;;;;;6129670;22;88254;-80
2023/04/30 02:59:18;;;;;;;17.17;11.23;;;5.40;95.50;;;;;;6129303;22;92688;-80
2023/04/30 03:01:44;;;;;;;15.50;9.15;;;5.40;95.70;;;;;;6151455;22;89856;-80
2023/04/30 03:04:09;;;;;;;14.40;9.20;;;5.40;95.60;;;;;;6151633;22;88251;-80
2023/04/30 03:06:35;;;;;;;16.73;9.65;;;5.40;95.60;;;;;;6151344;22;87803;-80
2023/04/30 03:09:01;;;;;;;17.65;11.20;;;5.30;95.50;;;;;;6125571;22;90126;-80
2023/04/30 03:11:27;;;;;;;14.85;9.52;;;5.30;95.70;;;;;;6127979;22;90104;-80
2023/04/30 03:13:52;;;;;;;21.70;12.13;;;5.30;95.60;;;;;;6130249;22;87280;-80
2023/04/30 03:16:19;;;;;;;17.52;10.60;;;5.30;95.60;;;;;;6128983;22;88617;-80
2023/04/30 03:18:46;;;;;;;21.85;11.02;;;5.30;95.40;;;;;;6155310;22;87838;-80
2023/04/30 03:21:12;;;;;;;19.40;11.25;;;5.30;95.50;;;;;;6152537;22;88456;-80
2023/04/30 03:23:37;;;;;;;18.55;11.32;;;5.20;95.50;;;;;;6152204;22;88289;-80
2023/04/30 03:26:03;;;;;;;17.23;11.00;;;5.20;95.60;;;;;;6127745;22;88777;-80
2023/04/30 03:28:29;;;;;;;18.00;10.38;;;5.20;95.50;;;;;;6154436;22;88442;-80
2023/04/30 03:30:54;;;;;;;18.50;10.82;;;5.20;95.50;;;;;;6155767;22;88401;-78
2023/04/30 03:33:20;;;;;;;23.67;11.18;;;5.10;95.50;;;;;;6128393;22;87601;-80
2023/04/30 03:35:46;;;;;;;20.35;11.30;;;5.10;95.50;;;;;;6155415;22;87947;-80
2023/04/30 03:38:12;;;;;;;17.95;10.38;;;5.10;95.50;;;;;;6155751;22;88533;-77
2023/04/30 03:40:37;;;;;;;16.50;10.10;;;5.10;95.50;;;;;;6156919;22;88199;-77
2023/04/30 03:43:03;;;;;;;18.38;10.25;;;5.00;95.40;;;;;;6155663;22;87295;-80
2023/04/30 03:45:29;;;;;;;20.25;11.02;;;5.00;95.50;;;;;;6128433;22;88473;-80
2023/04/30 03:47:55;;;;;;;14.75;9.40;;;5.00;95.40;;;;;;6127362;22;89681;-80
2023/04/30 03:50:20;;;;;;;22.08;11.25;;;4.90;95.30;;;;;;6154972;22;88453;-80
2023/04/30 03:52:46;;;;;;;18.73;10.20;;;4.90;95.70;;;;;;6156505;22;87592;-78
2023/04/30 03:55:12;;;;;;;15.73;10.13;;;4.90;96.10;;;;;;6155488;22;88258;-78
2023/04/30 03:57:39;;;;;;;16.80;10.35;;;4.90;96.20;;;;;;6154071;22;88482;-80
2023/04/30 04:00:06;;;;;;;17.33;9.57;;;4.90;96.40;;;;;;6155090;22;88722;-81
2023/04/30 04:02:33;;;;;;;17.42;10.18;;;4.90;96.20;;;;;;6156522;22;87133;-80
2023/04/30 04:04:58;;;;;;;18.08;10.05;;;4.90;96.10;;;;;;6156650;22;87098;-80
2023/04/30 04:07:24;;;;;;;17.38;10.60;;;4.80;95.90;;;;;;6128461;22;92020;-80
2023/04/30 04:09:50;;;;;;;18.55;10.30;;;4.80;95.80;;;;;;6155012;22;88006;-80
2023/04/30 04:12:15;;;;;;;16.23;10.45;;;4.80;95.70;;;;;;6128035;22;88452;-80
2023/04/30 04:14:41;;;;;;;16.80;9.95;;;4.80;95.70;;;;;;6155024;22;87961;-78
2023/04/30 04:17:07;;;;;;;20.42;11.23;;;4.80;95.60;;;;;;6156356;22;89082;-78
2023/04/30 04:19:32;;;;;;;15.93;10.00;;;4.70;95.60;;;;;;6128670;22;91336;-78
2023/04/30 04:21:58;;;;;;;19.23;11.25;;;4.70;95.50;;;;;;6128436;22;87153;-78
2023/04/30 04:24:24;;;;;;;23.33;13.80;;;4.70;95.60;;;;;;6154969;22;87180;-80
2023/04/30 04:26:50;;;;;;;28.35;14.48;;;4.70;95.70;;;;;;6154231;22;88070;-80
2023/04/30 04:29:16;;;;;;;31.17;15.93;;;4.70;95.80;;;;;;6128504;22;91619;-78
2023/04/30 04:31:42;;;;;;;38.38;18.02;;;4.70;95.90;;;;;;6155751;22;87504;-78
2023/04/30 04:34:08;;;;;;;40.42;19.98;;;4.70;96.00;;;;;;6128049;22;88829;-80
2023/04/30 04:36:34;;;;;;;34.53;18.27;;;4.60;95.90;;;;;;6127092;22;92053;-81
2023/04/30 04:39:03;;;;;;;30.83;17.33;;;4.60;96.00;;;;;;6155386;22;88707;-80
2023/04/30 04:41:32;;;;;;;28.98;16.05;;;4.70;96.00;;;;;;6128266;22;87229;-78
2023/04/30 04:44:02;;;;;;;26.02;13.65;;;4.70;95.90;;;;;;6156405;22;87557;-79
2023/04/30 04:46:29;;;;;;;25.77;15.10;;;4.70;95.90;;;;;;6153888;22;88279;-80
2023/04/30 04:48:54;;;;;;;26.20;15.48;;;4.70;95.90;;;;;;6155382;22;87938;-80
2023/04/30 04:51:20;;;;;;;28.25;14.45;;;4.70;96.00;;;;;;6128594;22;87581;-78
2023/04/30 04:53:46;;;;;;;22.90;14.25;;;4.70;96.00;;;;;;6128778;22;89860;-78
2023/04/30 04:56:12;;;;;;;23.88;14.18;;;4.80;96.30;;;;;;6128140;22;91850;-80
2023/04/30 04:58:38;;;;;;;22.77;13.57;;;4.80;96.40;;;;;;6128497;22;88898;-78
2023/04/30 05:01:04;;;;;;;22.35;13.38;;;4.80;96.30;;;;;;6127633;22;88568;-80
2023/04/30 05:03:31;;;;;;;21.80;13.35;;;4.90;96.30;;;;;;6127841;22;88655;-80
2023/04/30 05:05:58;;;;;;;22.77;13.73;;;4.90;96.50;;;;;;6127702;22;92111;-78
2023/04/30 05:08:23;;;;;;;23.05;14.43;;;4.90;96.40;;;;;;6127803;22;91312;-77
2023/04/30 05:10:49;;;;;;;23.63;13.90;;;5.00;96.50;;;;;;6129145;22;87628;-78
2023/04/30 05:13:15;;;;;;;23.65;14.38;;;5.10;96.50;;;;;;6127640;22;90420;-80
2023/04/30 05:15:41;;;;;;;29.60;15.80;;;5.20;96.50;;;;;;6154010;22;89231;-80
2023/04/30 05:18:07;;;;;;;38.80;16.80;;;5.20;96.50;;;;;;6154969;22;88308;-79
2023/04/30 05:20:33;;;;;;;32.40;18.50;;;5.30;96.60;;;;;;6155031;22;87402;-80
2023/04/30 05:22:58;;;;;;;28.05;16.52;;;5.40;96.70;;;;;;6129096;22;89430;-79
2023/04/30 05:25:24;;;;;;;33.10;17.25;;;5.50;96.60;;;;;;6154224;22;89534;-79
2023/04/30 05:27:50;;;;;;;32.63;17.92;;;5.60;96.70;;;;;;6127130;22;92195;-80
2023/04/30 05:30:16;;;;;;;37.42;19.52;;;5.70;96.90;;;;;;6127848;22;87481;-80
2023/04/30 05:32:41;;;;;;;36.95;19.50;;;5.80;97.20;;;;;;6127903;22;89185;-80
2023/04/30 05:35:08;;;;;;;39.45;21.73;;;5.90;97.10;;;;;;6128706;22;91633;-80
2023/04/30 05:37:34;;;;;;;37.78;21.58;;;6.00;97.10;;;;;;6127684;22;90677;-80
2023/04/30 05:40:00;;;;;;;47.45;23.25;;;6.10;97.20;;;;;;6154420;22;87366;-80
2023/04/30 05:42:25;;;;;;;50.38;24.90;;;6.30;97.30;;;;;;6154706;22;87323;-80
2023/04/30 05:44:51;;;;;;;40.65;22.30;;;6.40;97.40;;;;;;6155095;22;88779;-80
2023/04/30 05:47:17;;;;;;;45.28;24.52;;;6.50;97.40;;;;;;6154821;22;88024;-80
2023/04/30 05:49:42;;;;;;;52.10;28.20;;;6.60;97.40;;;;;;6128910;22;88570;-79
2023/04/30 05:52:08;;;;;;;57.78;29.55;;;6.70;97.40;;;;;;6127227;22;87942;-79
2023/04/30 05:54:34;;;;;;;53.60;29.90;;;6.90;97.50;;;;;;6154042;22;88159;-79
2023/04/30 05:57:00;;;;;;;61.28;32.10;;;7.00;97.40;;;;;;6126486;22;91224;-79
2023/04/30 05:59:25;;;;;;;56.13;32.35;;;7.10;97.40;;;;;;6153972;22;87386;-80
2023/04/30 06:01:51;;;;;;;55.53;30.80;;;7.20;97.40;;;;;;6155037;22;87830;-79
2023/04/30 06:04:17;;;;;;;61.10;32.35;;;7.40;97.30;;;;;;6127665;22;91347;-80
2023/04/30 06:06:43;;;;;;;55.83;30.77;;;7.50;97.30;;;;;;6127826;22;90061;-79
2023/04/30 06:09:09;;;;;;;51.97;30.75;;;7.60;97.20;;;;;;6154495;22;87291;-79
2023/04/30 06:11:41;;;;;;;53.97;30.55;;;7.70;97.30;;;;;;6157191;22;87418;-79
2023/04/30 06:14:06;;;;;;;56.08;30.88;;;7.80;97.20;;;;;;6129530;22;92665;-79
2023/04/30 06:16:32;;;;;;;51.33;29.45;;;8.00;97.20;;;;;;6128745;22;91649;-80
2023/04/30 06:18:58;;;;;;;48.17;28.85;;;8.10;97.10;;;;;;6154943;22;87502;-80
2023/04/30 06:21:24;;;;;;;50.00;30.05;;;8.20;97.00;;;;;;6156309;22;87461;-80
2023/04/30 06:23:51;;;;;;;47.03;29.08;;;8.30;97.00;;;;;;6161349;22;87574;-80
2023/04/30 06:26:18;;;;;;;54.33;31.17;;;8.50;96.80;;;;;;6155840;22;88246;-79
2023/04/30 06:28:45;;;;;;;52.95;31.58;;;8.60;96.70;;;;;;6130081;22;87400;-80
2023/04/30 06:31:11;;;;;;;48.13;28.30;;;8.70;96.60;;;;;;6161023;22;87346;-81
2023/04/30 06:33:36;;;;;;;46.65;28.60;;;8.80;96.30;;;;;;6157905;22;88515;-80
2023/04/30 06:36:02;;;;;;;46.55;29.13;;;9.00;96.30;;;;;;6158329;22;89165;-78
2023/04/30 06:38:28;;;;;;;48.50;28.75;;;9.10;96.00;;;;;;6155504;22;88456;-78
2023/04/30 06:40:54;;;;;;;43.15;25.55;;;9.20;95.80;;;;;;6156652;22;87428;-78
2023/04/30 06:43:20;;;;;;;44.67;27.58;;;9.40;95.70;;;;;;6155533;22;87185;-78
2023/04/30 06:45:45;;;;;;;46.28;27.55;;;9.40;95.70;;;;;;6155531;22;88037;-78
2023/04/30 06:48:11;;;;;;;37.50;25.15;;;9.60;95.40;;;;;;6128786;22;87265;-78
2023/04/30 06:50:43;;;;;;;41.00;25.77;;;9.70;94.90;;;;;;6128267;22;89263;-78
2023/04/30 06:53:10;;;;;;;44.95;26.10;;;9.80;94.70;;;;;;6156576;22;88666;-78
2023/04/30 06:55:36;;;;;;;42.13;26.55;;;10.00;94.90;;;;;;6129371;22;89297;-78
2023/04/30 06:58:01;;;;;;;45.28;26.30;;;10.20;94.60;;;;;;6155760;22;87540;-78
2023/04/30 07:00:27;;;;;;;41.40;24.23;;;10.30;94.20;;;;;;6128845;22;88756;-78
2023/04/30 07:02:53;;;;;;;38.85;25.52;;;10.50;93.90;;;;;;6127424;22;91456;-78
2023/04/30 07:05:18;;;;;;;44.35;26.80;;;10.60;93.50;;;;;;6128805;22;92066;-78
2023/04/30 07:07:45;;;;;;;40.85;24.98;;;10.70;93.20;;;;;;6155031;22;87376;-78
2023/04/30 07:10:11;;;;;;;37.55;25.35;;;10.80;92.80;;;;;;6153570;22;88147;-78
2023/04/30 07:12:39;;;;;;;39.35;25.33;;;10.90;92.60;;;;;;6130611;22;90257;-82
2023/04/30 07:15:06;;;;;;;43.35;28.95;;;11.10;92.30;;;;;;6158886;22;87178;-82
2023/04/30 07:17:33;;;;;;;41.03;26.35;;;11.30;92.20;;;;;;6157200;22;87582;-82
2023/04/30 07:19:58;;;;;;;43.17;26.50;;;11.40;92.10;;;;;;6122802;22;90186;-82
2023/04/30 07:22:24;;;;;;;42.20;27.83;;;11.60;91.90;;;;;;6166298;22;87320;-81
2023/04/30 07:24:50;;;;;;;39.67;25.65;;;11.80;91.40;;;;;;6170725;22;87634;-81
2023/04/30 07:27:16;;;;;;;36.20;25.00;;;11.90;90.90;;;;;;6165787;22;88314;-82
2023/04/30 07:42:46;;;;;;;37.75;23.80;;;13.10;87.60;;;;;;6115737;22;88980;-81
2023/04/30 07:47:47;;;;;;;33.75;22.33;;;13.50;87.00;;;;;;6088886;22;88548;-81
2023/04/30 07:50:13;;;;;;;38.33;21.98;;;13.60;85.90;;;;;;6146503;22;87903;-79
2023/04/30 07:52:40;;;;;;;33.67;21.83;;;13.80;83.30;;;;;;6101556;23;92623;-76
2023/04/30 07:55:12;;;;;;;34.08;22.45;;;14.00;83.40;;;;;;6098178;22;91325;-81
2023/04/30 07:57:40;;;;;;;37.05;22.63;;;14.20;83.50;;;;;;6127221;22;87190;-79
2023/04/30 08:02:44;;;;;;;31.52;20.60;;;14.50;81.40;;;;;;6131280;22;89505;-81
2023/04/30 08:05:11;;;;;;;29.25;20.00;;;14.70;80.60;;;;;;6167347;22;88529;-81
2023/04/30 08:10:12;;;;;;;31.77;20.13;;;14.90;79.30;;;;;;6153072;22;87630;-81
2023/04/30 08:13:05;;;;;;;28.08;19.60;;;15.20;78.70;;;;;;6141109;22;88310;-80
2023/04/30 08:15:33;;;;;;;30.10;19.75;;;15.40;78.20;;;;;;6152687;22;89679;-80
2023/04/30 08:18:08;;;;;;;22.48;17.77;;;15.60;77.20;;;;;;6187973;22;87708;-80
2023/04/30 08:26:41;;;;;;;27.55;19.40;;;16.20;74.40;;;;;;6154724;22;88841;-94
2023/04/30 08:29:07;;;;;;;28.52;18.88;;;16.30;75.50;;;;;;6124362;22;87238;-95
2023/04/30 08:31:37;;;;;;;26.38;17.83;;;16.40;75.10;;;;;;6110131;23;87916;-94
2023/04/30 08:34:03;;;;;;;26.83;18.63;;;16.60;74.80;;;;;;6098677;23;89528;-94
2023/04/30 08:36:28;;;;;;;24.65;17.90;;;16.90;74.90;;;;;;6111844;23;89127;-92
2023/04/30 08:38:56;;;;;;;25.98;17.52;;;17.10;72.30;;;;;;6098026;23;87747;-95
2023/04/30 08:41:25;;;;;;;24.77;16.75;;;17.30;69.80;;;;;;6130318;23;87451;-94
2023/04/30 08:44:01;;;;;;;22.30;15.65;;;17.40;71.00;;;;;;6125984;23;90642;-93
2023/04/30 08:46:34;;;;;;;22.00;15.38;;;17.50;68.30;;;;;;6130244;23;93594;-96
2023/04/30 08:49:00;;;;;;;21.27;15.00;;;17.80;67.60;;;;;;6110272;23;87416;-94
2023/04/30 08:51:26;;;;;;;21.60;15.35;;;17.90;65.80;;;;;;6108850;23;88569;-95
2023/04/30 08:53:58;;;;;;;18.30;12.48;;;18.10;67.50;;;;;;6107462;23;90069;-92
2023/04/30 08:56:25;;;;;;;19.73;13.30;;;18.20;66.10;;;;;;6111651;23;88093;-96
2023/04/30 08:58:51;;;;;;;19.27;13.07;;;18.40;64.60;;;;;;6104985;23;87102;-94
2023/04/30 09:01:18;;;;;;;18.30;13.30;;;18.60;63.70;;;;;;6100224;23;89857;-96
2023/04/30 09:03:51;;;;;;;18.08;12.68;;;18.80;63.10;;;;;;6112257;23;89609;-96
2023/04/30 09:06:16;;;;;;;18.05;11.73;;;19.00;60.80;;;;;;6071964;23;90234;-92
2023/04/30 09:08:48;;;;;;;17.63;11.02;;;19.10;61.70;;;;;;6089338;23;88654;-94
2023/04/30 09:11:29;;;;;;;18.30;12.90;;;19.30;63.50;;;;;;6108689;23;87499;-94
2023/04/30 09:14:00;;;;;;;16.15;12.15;;;19.50;60.60;;;;;;6070520;23;89014;-90
2023/04/30 09:16:31;;;;;;;15.85;9.85;;;19.70;59.90;;;;;;6116081;23;94442;-91
2023/04/30 09:18:58;;;;;;;15.30;10.88;;;19.80;58.70;;;;;;6120507;23;87350;-91
2023/04/30 09:21:34;;;;;;;17.85;11.35;;;20.00;60.60;;;;;;6090696;23;93172;-88
2023/04/30 09:24:02;;;;;;;20.70;11.73;;;20.20;58.30;;;;;;6116818;23;87848;-92
2023/04/30 09:26:37;;;;;;;16.67;10.70;;;20.40;58.10;;;;;;6087277;23;88654;-90
2023/04/30 09:29:09;;;;;;;15.50;9.80;;;20.50;57.30;;;;;;6058436;23;87673;-91
2023/04/30 09:31:35;;;;;;;9.57;8.23;;;20.60;56.80;;;;;;6088841;23;89684;-90
2023/04/30 09:34:02;;;;;;;12.07;9.93;;;20.80;56.80;;;;;;6061761;23;91299;-90
2023/04/30 09:36:28;;;;;;;13.77;9.02;;;20.80;54.60;;;;;;6063347;23;90865;-90
2023/04/30 09:38:55;;;;;;;17.23;9.27;;;20.90;54.40;;;;;;6088230;23;88068;-90
2023/04/30 09:41:23;;;;;;;9.98;6.78;;;21.10;55.80;;;;;;6065893;23;87863;-90
2023/04/30 09:43:49;;;;;;;10.18;6.40;;;21.20;56.10;;;;;;6088839;23;89126;-91
2023/04/30 09:46:18;;;;;;;9.55;6.95;;;21.30;52.30;;;;;;6061994;23;90339;-91
2023/04/30 09:48:44;;;;;;;8.57;7.07;;;21.40;50.80;;;;;;6063227;23;88055;-95
2023/04/30 09:51:10;;;;;;;9.68;6.80;;;21.40;53.40;;;;;;6089461;23;89183;-92
2023/04/30 09:53:41;;;;;;;10.25;6.47;;;21.60;52.10;;;;;;6088176;23;89950;-92
2023/04/30 09:56:09;;;;;;;7.95;6.20;;;21.80;51.00;;;;;;6088483;23;90117;-92
2023/04/30 09:58:39;;;;;;;10.13;6.55;;;21.80;52.20;;;;;;6088396;23;88585;-92
2023/04/30 10:01:10;;;;;;;11.07;6.03;;;21.90;50.10;;;;;;6086975;23;87600;-91
2023/04/30 10:03:38;;;;;;;8.07;6.40;;;22.00;49.90;;;;;;6062844;23;90688;-90
2023/04/30 10:06:06;;;;;;;8.07;4.85;;;22.20;50.00;;;;;;6063525;23;88684;-91
2023/04/30 10:08:44;;;;;;;8.18;4.75;;;22.40;51.70;;;;;;6063781;23;88213;-92
2023/04/30 10:11:15;;;;;;;8.23;4.30;;;22.70;48.70;;;;;;6087835;23;89351;-93
2023/04/30 10:14:04;;;;;;;6.78;5.57;;;22.90;52.10;;;;;;6064623;23;90364;-91
2023/04/30 10:16:54;;;;;;;7.15;6.10;;;23.10;48.30;;;;;;6089083;23;94395;-91
2023/04/30 10:19:31;;;;;;;9.27;6.97;;;23.20;48.00;;;;;;6088586;23;87584;-91
2023/04/30 10:21:57;;;;;;;10.25;6.63;;;23.10;47.90;;;;;;6087309;23;87838;-92
2023/04/30 10:24:22;;;;;;;8.13;5.97;;;23.10;47.50;;;;;;6086001;23;91887;-90
2023/04/30 10:26:49;;;;;;;7.60;5.70;;;23.30;49.50;;;;;;6091901;23;89952;-92
2023/04/30 10:29:16;;;;;;;7.60;5.53;;;23.50;47.50;;;;;;6116733;23;87532;-92
2023/04/30 10:31:45;;;;;;;8.30;5.75;;;23.60;47.90;;;;;;6120153;23;89534;-95
2023/04/30 10:34:34;;;;;;;6.80;5.45;;;23.70;48.90;;;;;;6120613;23;90742;-94
2023/04/30 10:37:06;;;;;;;9.05;6.72;;;23.90;48.10;;;;;;6118497;23;90329;-93
2023/04/30 10:39:33;;;;;;;8.35;5.72;;;24.20;45.60;;;;;;6117563;23;87988;-90
2023/04/30 10:42:02;;;;;;;8.27;5.85;;;24.30;47.50;;;;;;6117938;23;89621;-90
2023/04/30 10:44:32;;;;;;;5.13;4.43;;;24.50;46.20;;;;;;6117863;23;89827;-87
2023/04/30 10:47:02;;;;;;;7.03;4.80;;;24.60;47.40;;;;;;6120035;23;89843;-92
2023/04/30 10:49:28;;;;;;;7.57;5.13;;;24.60;45.40;;;;;;6119722;23;88481;-93
2023/04/30 10:51:55;;;;;;;6.38;4.55;;;24.60;45.50;;;;;;6116042;23;89439;-90
2023/04/30 10:54:26;;;;;;;6.22;4.18;;;24.80;47.00;;;;;;6113232;23;89345;-93
2023/04/30 10:56:52;;;;;;;7.00;3.97;;;25.00;42.90;;;;;;6112686;23;89313;-91
2023/04/30 10:59:18;;;;;;;7.38;4.43;;;25.00;44.60;;;;;;6114574;23;87599;-95
2023/04/30 11:02:02;;;;;;;5.32;3.33;;;25.00;43.80;;;;;;6117654;23;87760;-87
2023/04/30 11:04:28;;;;;;;3.20;2.38;;;25.20;44.50;;;;;;6113536;23;93310;-91
2023/04/30 11:07:06;;;;;;;9.35;4.60;;;25.20;44.60;;;;;;6114317;23;90126;-89
2023/04/30 11:09:42;;;;;;;5.65;4.13;;;25.00;42.30;;;;;;6118009;23;87308;-90
2023/04/30 11:12:14;;;;;;;5.18;3.95;;;25.00;44.50;;;;;;6114266;23;87705;-88
2023/04/30 11:14:42;;;;;;;4.50;4.05;;;25.30;42.80;;;;;;6099131;23;91096;-88
2023/04/30 11:17:12;;;;;;;4.97;4.15;;;25.60;43.70;;;;;;6115226;23;90807;-86
2023/04/30 11:19:49;;;;;;;4.88;3.30;;;25.80;43.30;;;;;;6114784;23;87680;-87
2023/04/30 11:22:15;;;;;;;13.90;4.30;;;25.80;40.60;;;;;;6111655;23;88038;-86
2023/04/30 11:24:52;;;;;;;4.10;3.08;;;25.80;41.80;;;;;;6111768;22;89486;-89
2023/04/30 11:27:28;;;;;;;5.63;3.70;;;25.80;40.50;;;;;;6086605;23;90341;-86
2023/04/30 11:29:55;;;;;;;4.03;3.15;;;26.00;43.70;;;;;;6113771;23;87443;-85
2023/04/30 11:32:23;;;;;;;3.88;2.85;;;26.30;44.60;;;;;;6112036;23;88850;-87
2023/04/30 11:34:49;;;;;;;7.70;3.72;;;26.60;39.90;;;;;;6113072;23;87330;-86
2023/04/30 11:37:20;;;;;;;4.18;2.50;;;26.60;41.30;;;;;;6091285;23;90035;-83
2023/04/30 11:39:47;;;;;;;3.60;2.63;;;26.60;40.90;;;;;;6115147;23;88621;-87
2023/04/30 11:42:20;;;;;;;4.05;2.65;;;26.80;41.40;;;;;;6090528;23;89352;-86
2023/04/30 11:44:46;;;;;;;3.15;2.85;;;26.80;39.20;;;;;;6085749;23;89973;-88
2023/04/30 11:47:14;;;;;;;3.58;2.33;;;27.00;40.80;;;;;;6111778;23;88629;-86
2023/04/30 11:49:43;;;;;;;4.03;1.98;;;27.20;41.30;;;;;;6112454;23;87881;-86
2023/04/30 11:52:09;;;;;;;4.55;3.05;;;27.30;39.90;;;;;;6110901;23;87255;-86
2023/04/30 11:54:37;;;;;;;3.67;3.08;;;27.20;39.20;;;;;;6111530;23;90594;-85
2023/04/30 11:57:03;;;;;;;6.53;3.50;;;27.30;39.90;;;;;;6086502;23;88656;-85
2023/04/30 11:59:40;;;;;;;8.02;2.97;;;27.00;39.10;;;;;;6111440;23;93883;-84
2023/04/30 12:02:06;;;;;;;4.18;2.53;;;27.20;41.10;;;;;;6111348;23;88219;-86
2023/04/30 12:04:32;;;;;;;2.85;1.90;;;27.20;38.50;;;;;;6111534;23;91361;-91
2023/04/30 12:06:59;;;;;;;5.10;2.35;;;27.20;39.90;;;;;;6111232;23;90126;-87
2023/04/30 12:09:25;;;;;;;5.53;2.38;;;27.40;39.00;;;;;;6085775;23;87173;-84
2023/04/30 12:11:50;;;;;;;62.53;6.90;;;27.50;38.70;;;;;;6112279;23;89431;-88
2023/04/30 12:14:16;;;;;;;4.75;1.80;;;27.50;39.20;;;;;;6112604;23;89266;-91
2023/04/30 12:16:51;;;;;;;2.10;1.77;;;27.50;42.00;;;;;;6115052;23;88616;-90
2023/04/30 12:19:18;;;;;;;3.40;1.58;;;27.70;37.60;;;;;;6089369;23;88132;-88
2023/04/30 12:21:47;;;;;;;4.10;1.73;;;27.90;36.60;;;;;;6113298;23;87826;-90
2023/04/30 12:24:17;;;;;;;2.78;2.30;;;28.00;37.00;;;;;;6114135;23;90673;-88
2023/04/30 12:26:43;;;;;;;6.05;2.75;;;28.00;37.10;;;;;;6113541;23;89747;-90
2023/04/30 12:29:16;;;;;;;3.75;2.60;;;28.10;38.30;;;;;;6114358;23;88607;-89
2023/04/30 12:31:43;;;;;;;4.05;1.95;;;28.30;37.90;;;;;;6115960;23;87675;-88
2023/04/30 12:34:13;;;;;;;4.63;2.05;;;28.60;38.30;;;;;;6111788;23;90767;-90
2023/04/30 12:36:43;;;;;;;4.03;2.05;;;28.60;37.90;;;;;;6113498;23;89592;-87
2023/04/30 12:39:14;;;;;;;4.40;2.13;;;28.50;38.10;;;;;;6110897;23;87452;-86
2023/04/30 12:41:45;;;;;;;2.90;1.20;;;28.60;38.30;;;;;;6087841;23;89535;-87
2023/04/30 12:44:18;;;;;;;3.47;1.65;;;28.80;41.90;;;;;;6088257;23;91011;-90
2023/04/30 12:46:45;;;;;;;2.88;1.65;;;29.10;38.40;;;;;;6115002;23;90083;-90
2023/04/30 12:49:11;;;;;;;3.15;1.92;;;29.00;39.30;;;;;;6113963;23;87359;-90
2023/04/30 12:51:40;;;;;;;2.65;1.80;;;28.70;38.80;;;;;;6112824;23;89798;-87
2023/04/30 12:54:05;;;;;;;3.08;1.83;;;28.80;39.30;;;;;;6111215;23;91654;-87
2023/04/30 12:56:31;;;;;;;3.85;1.48;;;29.00;38.60;;;;;;6087317;23;90842;-85
2023/04/30 12:58:57;;;;;;;3.67;1.55;;;29.40;36.90;;;;;;6111944;23;87517;-88
2023/04/30 13:01:24;;;;;;;1.90;1.13;;;29.20;38.50;;;;;;6115489;23;87581;-88
2023/04/30 13:03:51;;;;;;;2.92;1.38;;;29.40;36.80;;;;;;6114189;23;89562;-88
2023/04/30 13:06:17;;;;;;;3.58;2.03;;;29.50;38.50;;;;;;6089152;23;89641;-87
2023/04/30 13:08:44;;;;;;;1.67;1.15;;;29.10;35.50;;;;;;6112702;23;87970;-89